Hauptseite
METAR-TAF:

METAR-TAF

Flughäfen :

Irkutsk, Russland

Flughafen Irkutsk

Breite: 52-16N, Länge: 104-19E, Höhe: 513 m

Beobachtung

Neuester Wetterbericht von vor 35 Minuten, um 13:30 UTC
Wind 2 kt aus Süd
Temperatur 0°C
Luftfeuchtigkeit 47%
Luftdruck 1029 hPa
Sichtweite 10 km oder mehr
keine Wolken unter 1500 m und keine Kumulonimbus oder Gewitterwolken

METAR: UIII 241330Z 17001MPS CAVOK 00/M10 Q1029 R30/60D NOSIG RMK QFE726/0968

Zeit: 22:05 (14:05 UTC)

Prognose

Neuester Wetterbericht von vor 3 Stunden und 5 Minuten, um 11:00 UTC
Gültige Prognose vom 24 um 12 UTC bis 25 um 12 UTC
Wind 2 kt aus unterschiedlichen Richtungen
Sichtweite 10 km oder mehr
Übergehend zu
vom 25 um 04 UTC bis 25 um 06 UTC
Wind 12 kt aus Südost

TAF: UIII 241100Z 2412/2512 VRB01MPS 9999 NSC BECMG 2504/2506 14006MPS

Wetterbeobachtungen und Prognosen von mehr als 4000 Flughäfen (METAR und TAF Bericht).

Die verfügbaren Stationen werden durch gelbe und rote Markierungen auf der Karte dargestellt.

Führen Sie die Maus auf sie, um den Namen der Station zu sehen.

Darauf klicken, um die Beobachtung von Wetterbeobachtungen und Prognosen zu sehen.

Um die Karte zu ändern : klicken Sie auf den grünen Tasten mit einem schwarzen Kreuz Zum Vergrößern, auf den grünen Button mit einem Gedankenstrich zu verkleinern, oder auf die grünen Pfeile für benachbarte Karten.


METAR-TAF: